Tompkinsville, Kentucky
Current Conditions -  °F | °C
As of 11:55 AM on Sunday 25 Jan 2015 (Local Time) from KGLW Reporting Station
Broken Clouds Broken Clouds  
Wind Chill: 45°   Ceiling: 11000
Heat Index: 49°   Visibility: 10mi
Dew Point: 34°   Wind: 10mph
Humidity: 55%   Direction: 200°SSW
Pressure: 29.67"   Gusts: NA
Location:  36.7°N, 85.69°W
Report Text: KGLW 251755Z AUTO 20009KT 10SM BKN110 10/01 A2967 RMK AO2 T00970011 10102 20023
Loading
Personal Weather Stations






























Interactive Weather Map New forecast layout! Learn more

10-Day Weather Forecast

Advertisements
Track Severe Weather on mobile